Marin-707 — 9GDT — position and weather

sailwx.info

Track history (hours):
 
Tides and Currents Weather Stations Pressure Air Temp Water Temp Dewpoint Dewpoint Depression Visibility Wind Speed Wind Dir Waves Ship Positions

Marin-707

Last reported at 2017-Dec-10 10:42 UTC. Time now 2017-Dec-11 17:06 UTC.
Position N 05°12' W 000°32'.

Length 60 m.

MMSI: 627880000.

Date/timePositionNaut miles runAvg speedWind from/ knotsBaromVisibWave heightAir tempDewpointWater temp
2017-Dec-10 10:42N 05°12' W 000°32'2 7.8
2017-Dec-10 10:30N 05°14' W 000°32'4 7.4
2017-Dec-10 09:59N 05°17' W 000°34'0 0.4
2017-Dec-10 09:08N 05°17' W 000°34'0 0.7
2017-Dec-10 08:40N 05°17' W 000°34'0 1.7
2017-Dec-10 08:27N 05°17' W 000°34'1 0.7
2017-Dec-10 07:40N 05°17' W 000°34'0 0.5
2017-Dec-10 07:09N 05°17' W 000°34'1 3.7
2017-Dec-10 06:59N 05°17' W 000°35'1 1.9
2017-Dec-10 06:30N 05°18' W 000°34'3 3.7
2017-Dec-10 05:50N 05°19' W 000°32'3 5.7
2017-Dec-10 05:17N 05°17' W 000°30'  
2017-Nov-30 12:51N 05°10' W 000°50'1 1.6
2017-Nov-30 12:09N 05°10' W 000°51'  
Track history (hours):
 
Tides and Currents Weather Stations Pressure Air Temp Water Temp Dewpoint Dewpoint Depression Visibility Wind Speed Wind Dir Waves Ship Positions

Marin-707

Last reported at 2017-Dec-10 10:42 UTC. Time now 2017-Dec-11 17:06 UTC.
Position N 05°12' W 000°32'.

Length 60 m.

MMSI: 627880000.

Date/timePositionNaut miles runAvg speedWind from/ knotsBaromVisibWave heightAir tempDewpointWater temp
2017-Dec-10 10:42N 05°12' W 000°32'2 7.8
2017-Dec-10 10:30N 05°14' W 000°32'4 7.4
2017-Dec-10 09:59N 05°17' W 000°34'0 0.4
2017-Dec-10 09:08N 05°17' W 000°34'0 0.7
2017-Dec-10 08:40N 05°17' W 000°34'0 1.7
2017-Dec-10 08:27N 05°17' W 000°34'1 0.7
2017-Dec-10 07:40N 05°17' W 000°34'0 0.5
2017-Dec-10 07:09N 05°17' W 000°34'1 3.7
2017-Dec-10 06:59N 05°17' W 000°35'1 1.9
2017-Dec-10 06:30N 05°18' W 000°34'3 3.7
2017-Dec-10 05:50N 05°19' W 000°32'3 5.7
2017-Dec-10 05:17N 05°17' W 000°30'  
2017-Nov-30 12:51N 05°10' W 000°50'1 1.6
2017-Nov-30 12:09N 05°10' W 000°51'  

Dump ship's entire track history